Terminal Aerodrome Forecast
Issued by NWS

Home | Current Version | Previous Version | Text Only | Print | Product List | Glossary On
Versions: 1 2 3 4 5 6 7 8 9 10 11 12 13
000
FTUS42 KGSP 292324
TAFAND
TAF
KAND 292324Z 3000/3024 22006KT P6SM SCT060 SCT250
     FM300200 00000KT P6SM SCT250
     FM301400 23006KT P6SM SCT250
     FM301600 25011G20KT P6SM SCT060
     FM301800 25013G22KT P6SM BKN050 PROB30 3018/3024 4SM TSRA
      BKN040CB=

USA.gov is the U.S. government's official web portal to all federal, state and local government web resources and services.